Time;durP1;ratioP1;P1;durP2;ratioP2;P2;SDS_P1;SDS_P2;PMS_P1;PMS_P2;Temp;Humidity;BMP_temperature;BMP_pressure;BME280_temperature;BME280_humidity;BME280_pressure;Samples;Min_cycle;Max_cycle;Signal;HPM_P1;HPM_P2
2022/07/08 00:02:30;;;;;;;4.88;3.72;;;;;;;20.15;100.00;101090.56;4962165;28;20081;-74
2022/07/08 00:05:16;;;;;;;7.90;3.70;;;;;;;20.02;100.00;101092.09;4974921;28;20031;-73
2022/07/08 00:08:02;;;;;;;4.55;3.50;;;;;;;20.14;100.00;101091.53;4961626;28;20027;-74
2022/07/08 00:10:48;;;;;;;6.15;4.00;;;;;;;20.27;100.00;101096.16;4962054;28;20030;-74
2022/07/08 00:13:34;;;;;;;5.43;3.58;;;;;;;20.44;100.00;101090.81;4964719;28;20441;-74
2022/07/08 00:16:19;;;;;;;10.27;3.65;;;;;;;20.58;100.00;101090.09;4978925;28;20372;-74
2022/07/08 00:19:07;;;;;;;3.83;3.42;;;;;;;20.20;100.00;101084.09;4965592;28;20019;-75
2022/07/08 00:21:53;;;;;;;5.07;3.70;;;;;;;20.22;100.00;101082.22;4965159;28;20023;-75
2022/07/08 00:24:39;;;;;;;4.38;3.55;;;;;;;19.69;100.00;101069.84;4964831;28;20125;-73
2022/07/08 00:27:25;;;;;;;4.63;3.50;;;;;;;20.05;100.00;101068.00;4978448;28;20106;-73
2022/07/08 00:30:12;;;;;;;4.82;3.67;;;;;;;20.26;100.00;101067.81;4977958;28;20373;-74
2022/07/08 00:32:58;;;;;;;4.00;3.60;;;;;;;20.21;100.00;101055.69;4978519;28;20097;-76
2022/07/08 00:35:44;;;;;;;5.32;3.40;;;;;;;20.50;100.00;101060.34;4977724;28;20041;-75
2022/07/08 00:38:29;;;;;;;4.82;3.90;;;;;;;20.58;100.00;101063.47;4965132;28;20031;-75
2022/07/08 00:41:15;;;;;;;9.30;3.95;;;;;;;20.27;100.00;101050.91;4977935;28;20471;-73
2022/07/08 00:44:01;;;;;;;16.50;4.60;;;;;;;20.27;100.00;101045.59;4963985;28;20069;-74
2022/07/08 00:46:47;;;;;;;6.20;4.10;;;;;;;20.21;100.00;101047.72;4977737;28;20114;-75
2022/07/08 00:49:33;;;;;;;7.38;4.22;;;;;;;20.26;100.00;101043.88;4977645;28;20433;-75
2022/07/08 00:52:19;;;;;;;5.35;4.10;;;;;;;20.17;100.00;101052.31;4963732;28;20022;-75
2022/07/08 00:55:06;;;;;;;14.65;4.47;;;;;;;20.12;100.00;101042.84;4977192;28;20050;-76
2022/07/08 00:57:52;;;;;;;4.30;3.60;;;;;;;20.33;100.00;101057.72;4977767;28;20042;-75
2022/07/08 01:00:38;;;;;;;8.57;4.18;;;;;;;20.06;100.00;101065.28;4964287;28;20069;-76
2022/07/08 01:03:24;;;;;;;5.22;4.00;;;;;;;20.24;100.00;101059.03;4978025;28;20065;-74
2022/07/08 01:06:10;;;;;;;6.72;4.10;;;;;;;20.00;100.00;101059.38;4977315;28;20432;-75
2022/07/08 01:08:56;;;;;;;6.28;3.83;;;;;;;19.86;100.00;101059.22;4978371;28;20027;-74
2022/07/08 01:11:47;;;;;;;6.30;4.20;;;;;;;20.09;100.00;101066.94;4977547;28;20099;-74
2022/07/08 01:14:33;;;;;;;5.53;4.07;;;;;;;19.91;100.00;101070.50;4977518;28;20077;-74
2022/07/08 01:17:19;;;;;;;7.25;4.40;;;;;;;20.20;100.00;101067.25;4977419;28;20457;-74
2022/07/08 01:20:05;;;;;;;4.80;3.90;;;;;;;20.06;100.00;101061.75;4964584;28;20041;-75
2022/07/08 01:22:51;;;;;;;5.05;4.00;;;;;;;20.36;100.00;101061.06;4977251;28;20034;-74
2022/07/08 01:25:37;;;;;;;9.48;4.78;;;;;;;20.26;100.00;101062.50;4977211;28;20086;-73
2022/07/08 01:28:23;;;;;;;5.95;4.03;;;;;;;20.37;100.00;101057.44;4977391;28;20512;-73
2022/07/08 01:31:09;;;;;;;7.57;3.80;;;;;;;20.62;100.00;101060.53;4977184;28;20512;-74
2022/07/08 01:33:55;;;;;;;4.47;4.07;;;;;;;20.47;100.00;101057.84;4963831;28;20130;-74
2022/07/08 01:36:41;;;;;;;14.88;4.85;;;;;;;20.52;100.00;101058.44;4964299;28;20019;-73
2022/07/08 01:39:27;;;;;;;8.20;4.05;;;;;;;20.30;100.00;101056.06;4976774;28;20074;-74
2022/07/08 01:42:12;;;;;;;5.47;4.00;;;;;;;20.34;100.00;101057.63;4976639;28;20031;-74
2022/07/08 01:44:58;;;;;;;4.28;3.88;;;;;;;20.54;100.00;101056.59;4977018;28;20031;-74
2022/07/08 01:47:44;;;;;;;7.57;4.45;;;;;;;20.47;100.00;101060.50;4976821;28;20030;-74
2022/07/08 01:50:30;;;;;;;4.85;4.05;;;;;;;20.18;100.00;101064.69;4964270;28;20027;-74
2022/07/08 01:53:16;;;;;;;6.18;3.97;;;;;;;19.98;100.00;101062.16;4963316;28;20042;-75
2022/07/08 01:56:05;;;;;;;5.35;3.88;;;;;;;20.15;100.00;101070.16;4977087;28;20050;-74
2022/07/08 01:58:51;;;;;;;5.68;4.88;;;;;;;20.25;100.00;101070.56;4976827;28;20030;-74
2022/07/08 02:01:36;;;;;;;5.20;4.65;;;;;;;20.31;100.00;101076.41;4963447;28;20030;-75
2022/07/08 02:04:22;;;;;;;6.95;5.32;;;;;;;20.30;100.00;101079.16;4962734;28;20097;-73
2022/07/08 02:07:08;;;;;;;9.95;6.47;;;;;;;20.13;100.00;101079.16;4976502;28;20030;-74
2022/07/08 02:09:54;;;;;;;8.50;6.57;;;;;;;20.24;100.00;101084.78;4963578;28;20085;-74
2022/07/08 02:12:40;;;;;;;9.65;7.10;;;;;;;19.89;100.00;101083.88;4975866;28;20023;-75
2022/07/08 02:15:26;;;;;;;5.10;4.60;;;;;;;19.42;100.00;101085.34;4976196;28;20030;-74
2022/07/08 02:18:12;;;;;;;5.30;4.68;;;;;;;19.36;100.00;101096.25;4976478;28;20211;-74
2022/07/08 02:20:57;;;;;;;8.68;4.85;;;;;;;19.58;100.00;101088.13;4963863;28;20023;-75
2022/07/08 02:23:43;;;;;;;5.75;4.97;;;;;;;19.59;100.00;101098.69;4975607;28;20453;-74
2022/07/08 02:26:29;;;;;;;6.55;4.60;;;;;;;19.36;100.00;101092.75;4963160;28;20027;-74
2022/07/08 02:29:15;;;;;;;5.90;5.30;;;;;;;19.47;100.00;101101.06;4976100;28;20023;-76
2022/07/08 02:32:01;;;;;;;10.18;7.85;;;;;;;19.96;100.00;101101.25;4976487;28;20030;-74
2022/07/08 02:34:47;;;;;;;11.77;8.65;;;;;;;19.69;100.00;101117.72;4976398;28;20038;-74
2022/07/08 02:37:32;;;;;;;11.23;8.98;;;;;;;19.97;100.00;101118.91;4966428;28;20030;-75
2022/07/08 02:40:18;;;;;;;13.05;8.63;;;;;;;19.83;100.00;101120.53;4978992;28;20109;-74
2022/07/08 02:43:09;;;;;;;9.57;8.60;;;;;;;19.68;100.00;101124.81;4965898;28;20023;-74
2022/07/08 02:45:55;;;;;;;12.05;9.50;;;;;;;19.83;100.00;101120.53;4964628;28;20027;-74
2022/07/08 02:48:41;;;;;;;11.90;9.45;;;;;;;19.96;100.00;101122.53;4977368;28;20042;-73
2022/07/08 02:51:27;;;;;;;11.45;9.38;;;;;;;19.80;100.00;101128.69;4975456;28;20023;-74
2022/07/08 02:54:12;;;;;;;13.13;10.02;;;;;;;19.74;100.00;101128.97;4963565;28;20050;-73
2022/07/08 02:56:58;;;;;;;10.65;9.48;;;;;;;19.64;100.00;101135.69;4975462;28;20023;-72
2022/07/08 02:59:44;;;;;;;15.35;10.35;;;;;;;19.60;100.00;101129.63;4975344;28;20046;-74
2022/07/08 03:02:30;;;;;;;11.38;9.60;;;;;;;19.57;100.00;101135.09;4961771;28;20053;-73
2022/07/08 03:05:16;;;;;;;11.18;9.57;;;;;;;19.04;100.00;101132.25;4975850;28;20048;-74
2022/07/08 03:08:02;;;;;;;10.73;8.77;;;;;;;19.42;100.00;101129.66;4974727;28;20041;-74
2022/07/08 03:10:49;;;;;;;12.82;9.20;;;;;;;19.49;100.00;101131.94;4975958;28;20030;-74
2022/07/08 03:13:36;;;;;;;10.80;8.88;;;;;;;19.43;100.00;101126.91;4975405;28;20449;-76
2022/07/08 03:16:22;;;;;;;10.70;8.77;;;;;;;19.84;100.00;101128.44;4975513;28;20116;-75
2022/07/08 03:19:08;;;;;;;9.98;8.98;;;;;;;19.86;100.00;101128.38;4981541;28;20089;-73
2022/07/08 03:21:54;;;;;;;11.73;8.98;;;;;;;19.97;100.00;101134.03;4979457;28;20417;-73
2022/07/08 03:24:40;;;;;;;10.38;9.27;;;;;;;19.87;100.00;101132.75;4966580;28;20041;-74
2022/07/08 03:27:26;;;;;;;12.75;8.68;;;;;;;20.08;100.00;101126.38;4979040;28;20027;-74
2022/07/08 03:30:14;;;;;;;12.27;8.88;;;;;;;20.00;100.00;101132.06;4981815;28;20381;-73
2022/07/08 03:33:00;;;;;;;10.95;9.20;;;;;;;19.92;100.00;101128.94;4970108;28;20493;-73
2022/07/08 03:35:46;;;;;;;16.30;9.60;;;;;;;20.02;100.00;101132.88;4983105;28;20065;-73
2022/07/08 03:38:32;;;;;;;13.85;9.27;;;;;;;20.12;100.00;101141.28;4969143;28;20033;-74
2022/07/08 03:41:20;;;;;;;10.63;9.20;;;;;;;20.21;100.00;101147.00;4975821;28;20058;-75
2022/07/08 03:44:06;;;;;;;13.02;9.75;;;;;;;19.98;100.00;101141.94;4975915;28;20373;-74
2022/07/08 03:46:52;;;;;;;13.65;9.02;;;;;;;20.21;100.00;101138.19;4975645;28;20034;-76
2022/07/08 03:49:38;;;;;;;12.05;9.88;;;;;;;20.24;100.00;101136.22;4966200;28;20023;-74
2022/07/08 03:52:24;;;;;;;12.90;9.45;;;;;;;20.30;100.00;101137.69;4979763;28;20030;-73
2022/07/08 03:55:09;;;;;;;12.25;9.63;;;;;;;19.85;100.00;101143.47;4978585;28;20043;-74
2022/07/08 03:57:57;;;;;;;16.10;10.30;;;;;;;20.07;100.00;101138.81;4979501;28;20085;-74
2022/07/08 04:00:43;;;;;;;13.75;9.88;;;;;;;19.72;100.00;101137.03;4977795;28;20026;-74
2022/07/08 04:03:29;;;;;;;17.60;10.88;;;;;;;20.09;100.00;101129.00;4966199;28;20026;-74
2022/07/08 04:06:15;;;;;;;14.18;10.88;;;;;;;20.19;100.00;101135.59;4978109;28;20036;-74
2022/07/08 04:09:01;;;;;;;14.10;10.15;;;;;;;20.37;100.00;101139.13;4966021;28;20027;-74
2022/07/08 04:11:46;;;;;;;16.35;10.80;;;;;;;20.71;100.00;101139.09;4977748;28;20027;-74
2022/07/08 04:14:32;;;;;;;12.07;10.23;;;;;;;20.96;100.00;101142.22;4978210;28;20046;-74
2022/07/08 04:17:18;;;;;;;15.98;9.70;;;;;;;20.89;100.00;101146.97;4977549;28;20023;-74
2022/07/08 04:20:04;;;;;;;11.75;9.35;;;;;;;20.82;100.00;101148.22;4965858;28;20090;-73
2022/07/08 04:22:50;;;;;;;13.40;9.90;;;;;;;21.10;100.00;101147.69;4978815;28;20480;-74
2022/07/08 04:25:36;;;;;;;15.00;9.60;;;;;;;20.61;100.00;101154.69;4977928;28;20377;-75
2022/07/08 04:28:22;;;;;;;14.63;10.32;;;;;;;21.01;100.00;101157.00;4977408;28;20023;-75
2022/07/08 04:31:08;;;;;;;14.10;10.55;;;;;;;20.84;100.00;101159.69;4977824;28;20050;-74
2022/07/08 04:33:54;;;;;;;12.48;9.50;;;;;;;21.39;100.00;101170.94;4964446;28;20022;-75
2022/07/08 04:36:40;;;;;;;13.77;10.35;;;;;;;20.80;100.00;101159.91;4964204;28;20026;-74
2022/07/08 04:39:26;;;;;;;14.50;10.05;;;;;;;21.33;100.00;101158.81;4965396;28;20027;-74
2022/07/08 04:42:11;;;;;;;14.55;8.65;;;;;;;21.60;100.00;101167.97;4977335;28;20027;-75
2022/07/08 04:44:57;;;;;;;12.57;9.52;;;;;;;21.74;100.00;101161.88;4978288;28;20031;-74
2022/07/08 04:47:43;;;;;;;10.25;8.65;;;;;;;21.77;100.00;101151.03;4977848;28;20031;-74
2022/07/08 04:50:29;;;;;;;10.63;8.48;;;;;;;21.86;100.00;101167.38;4978320;28;20400;-74
2022/07/08 04:53:15;;;;;;;9.52;8.43;;;;;;;22.09;100.00;101169.59;4977694;28;20042;-75
2022/07/08 04:56:01;;;;;;;13.07;9.88;;;;;;;22.08;100.00;101165.22;4978172;28;20051;-74
2022/07/08 04:58:46;;;;;;;13.45;9.18;;;;;;;21.80;100.00;101169.53;4963481;28;20019;-74
2022/07/08 05:01:32;;;;;;;10.93;8.95;;;;;;;21.58;100.00;101164.50;4977746;28;20058;-75
2022/07/08 05:04:18;;;;;;;9.45;8.32;;;;;;;21.64;100.00;101173.97;4977481;28;20089;-75
2022/07/08 05:07:04;;;;;;;13.55;9.45;;;;;;;22.28;100.00;101167.59;4976902;28;20027;-74
2022/07/08 05:09:50;;;;;;;10.18;8.43;;;;;;;22.16;100.00;101170.97;4977952;28;20035;-74
2022/07/08 05:12:35;;;;;;;11.68;9.27;;;;;;;22.38;100.00;101165.25;4977006;28;20097;-74
2022/07/08 05:15:22;;;;;;;15.40;9.60;;;;;;;22.51;100.00;101164.44;4977887;28;20097;-74
2022/07/08 05:18:08;;;;;;;13.10;8.82;;;;;;;22.43;100.00;101169.34;4977032;28;20033;-76
2022/07/08 05:20:53;;;;;;;13.63;9.25;;;;;;;22.42;100.00;101167.63;4977456;28;20019;-75
2022/07/08 05:23:39;;;;;;;9.70;8.63;;;;;;;22.70;100.00;101174.88;4977724;28;20097;-75
2022/07/08 05:26:25;;;;;;;9.85;8.25;;;;;;;22.89;100.00;101173.69;4977121;28;20033;-74
2022/07/08 05:29:11;;;;;;;16.63;7.75;;;;;;;22.87;100.00;101170.25;4976884;28;20053;-73
2022/07/08 05:31:57;;;;;;;15.38;8.10;;;;;;;22.56;100.00;101169.53;4976702;28;20461;-75
2022/07/08 05:34:44;;;;;;;11.05;8.68;;;;;;;22.73;100.00;101164.00;4976730;28;20035;-75
2022/07/08 05:37:31;;;;;;;10.48;8.18;;;;;;;22.33;100.00;101162.84;4976866;28;20023;-76
2022/07/08 05:40:16;;;;;;;10.57;8.85;;;;;;;22.41;100.00;101162.38;4964339;28;20464;-74
2022/07/08 05:43:03;;;;;;;9.57;8.43;;;;;;;23.09;100.00;101164.44;4964085;28;20038;-75
2022/07/08 05:45:49;;;;;;;11.43;9.20;;;;;;;23.68;100.00;101163.38;4977184;28;20026;-74
2022/07/08 05:48:35;;;;;;;13.45;10.27;;;;;;;23.51;100.00;101164.47;4963732;28;20174;-75
2022/07/08 05:51:20;;;;;;;11.90;8.05;;;;;;;22.71;100.00;101168.63;4963604;28;20433;-73
2022/07/08 05:54:06;;;;;;;11.88;8.15;;;;;;;22.67;100.00;101164.41;4976797;28;20357;-74
2022/07/08 05:56:52;;;;;;;10.57;7.65;;;;;;;22.71;100.00;101172.13;4976916;28;20505;-74
2022/07/08 05:59:39;;;;;;;9.05;7.82;;;;;;;23.38;100.00;101168.03;4957548;28;20081;-76
2022/07/08 06:02:25;;;;;;;7.97;6.93;;;;;;;23.28;100.00;101165.91;4953373;28;20380;-74
2022/07/08 06:05:11;;;;;;;11.05;7.60;;;;;;;23.55;100.00;101174.03;4966909;28;20461;-74
2022/07/08 06:07:57;;;;;;;11.05;7.68;;;;;;;22.85;100.00;101169.50;4968120;28;20039;-74
2022/07/08 06:10:43;;;;;;;12.75;7.78;;;;;;;22.26;100.00;101156.13;4970453;28;20038;-75
2022/07/08 06:13:29;;;;;;;9.75;7.75;;;;;;;22.49;100.00;101157.47;4968801;28;20026;-75
2022/07/08 06:16:14;;;;;;;9.80;7.88;;;;;;;22.77;100.00;101165.56;4955952;28;20488;-77
2022/07/08 06:19:00;;;;;;;12.60;8.23;;;;;;;21.98;100.00;101160.50;4959477;28;20099;-76
2022/07/08 06:21:46;;;;;;;16.67;11.55;;;;;;;22.17;100.00;101161.13;4961031;28;20355;-75
2022/07/08 06:24:32;;;;;;;12.00;8.75;;;;;;;22.71;100.00;101161.44;4973370;28;20023;-77
2022/07/08 06:27:18;;;;;;;13.13;9.93;;;;;;;22.77;100.00;101160.22;4972833;28;20456;-79
2022/07/08 06:30:04;;;;;;;10.52;7.25;;;;;;;22.65;100.00;101166.28;4970107;28;20026;-80
2022/07/08 06:32:50;;;;;;;11.10;8.63;;;;;;;22.26;100.00;101164.13;4972816;28;20053;-78
2022/07/08 06:35:36;;;;;;;12.82;8.52;;;;;;;22.89;100.00;101170.16;4959599;28;20046;-78
2022/07/08 06:38:22;;;;;;;8.82;7.93;;;;;;;22.75;100.00;101162.97;4981153;28;20026;-78
2022/07/08 06:41:07;;;;;;;11.27;8.90;;;;;;;23.04;100.00;101163.88;4960280;28;20111;-78
2022/07/08 06:43:53;;;;;;;8.50;7.70;;;;;;;23.05;100.00;101154.91;4972802;28;20037;-76
2022/07/08 06:46:39;;;;;;;8.90;8.00;;;;;;;22.81;100.00;101164.41;4968771;28;20054;-78
2022/07/08 06:49:25;;;;;;;11.48;8.73;;;;;;;22.65;100.00;101164.50;4972839;28;20089;-79
2022/07/08 06:52:10;;;;;;;10.50;9.40;;;;;;;22.44;100.00;101152.38;4957595;28;20125;-77
2022/07/08 06:54:57;;;;;;;12.80;10.32;;;;;;;23.35;100.00;101156.53;4971896;28;20401;-80
2022/07/08 06:57:43;;;;;;;10.38;8.82;;;;;;;23.95;100.00;101153.59;4972707;28;20027;-79
2022/07/08 07:00:30;;;;;;;14.23;11.73;;;;;;;23.63;100.00;101147.66;4970991;28;20127;-78
2022/07/08 07:03:16;;;;;;;16.88;14.18;;;;;;;23.57;100.00;101144.47;4973765;28;20045;-78
2022/07/08 07:06:02;;;;;;;15.65;9.98;;;;;;;23.91;100.00;101144.88;4958897;28;20035;-78
2022/07/08 07:08:48;;;;;;;12.77;8.93;;;;;;;24.02;100.00;101149.56;4975280;28;20144;-76
2022/07/08 07:11:35;;;;;;;12.75;10.65;;;;;;;24.08;100.00;101143.78;4968508;28;20046;-78
2022/07/08 07:14:20;;;;;;;13.45;10.50;;;;;;;24.32;100.00;101144.84;4968666;28;20038;-78
2022/07/08 07:17:06;;;;;;;12.02;8.90;;;;;;;24.47;100.00;101141.13;4967317;28;20114;-79
2022/07/08 07:19:52;;;;;;;11.77;9.63;;;;;;;24.52;100.00;101141.66;4968092;28;20042;-77
2022/07/08 07:22:38;;;;;;;10.98;9.15;;;;;;;24.02;100.00;101150.41;4966957;28;20460;-79
2022/07/08 07:25:23;;;;;;;11.23;8.98;;;;;;;24.45;100.00;101151.06;4954694;28;20126;-77
2022/07/08 07:28:09;;;;;;;12.60;8.73;;;;;;;24.89;100.00;101147.09;4967814;28;20067;-79
2022/07/08 07:30:55;;;;;;;11.43;8.68;;;;;;;25.05;100.00;101146.88;4967267;28;20038;-79
2022/07/08 07:33:41;;;;;;;13.82;8.27;;;;;;;25.23;100.00;101142.91;4968283;28;20041;-77
2022/07/08 07:36:26;;;;;;;9.90;8.60;;;;;;;25.14;100.00;101143.53;4967038;28;20122;-78
2022/07/08 07:39:12;;;;;;;9.20;8.15;;;;;;;25.22;100.00;101143.84;4969134;28;20081;-74
2022/07/08 07:41:58;;;;;;;8.50;7.40;;;;;;;25.78;100.00;101140.66;4968117;28;20150;-78
2022/07/08 07:44:44;;;;;;;6.50;5.90;;;;;;;25.75;100.00;101144.41;4952900;28;20031;-77
2022/07/08 07:47:30;;;;;;;5.97;5.38;;;;;;;26.15;100.00;101137.84;4968423;28;20445;-78
2022/07/08 07:50:15;;;;;;;8.60;7.70;;;;;;;26.29;100.00;101140.31;4969847;28;20039;-78
2022/07/08 07:53:01;;;;;;;6.57;5.00;;;;;;;26.44;100.00;101135.63;4968705;28;20571;-78
2022/07/08 07:55:47;;;;;;;5.07;4.57;;;;;;;26.72;100.00;101125.34;4933657;28;20095;-77
2022/07/08 07:58:33;;;;;;;6.43;4.65;;;;;;;26.96;100.00;101123.41;4947612;29;20126;-75
2022/07/08 08:01:19;;;;;;;8.57;5.60;;;;;;;26.98;100.00;101117.94;4954162;29;20731;-79
2022/07/08 08:04:04;;;;;;;6.32;5.05;;;;;;;26.96;100.00;101117.16;4943838;29;20023;-79
2022/07/08 08:06:50;;;;;;;6.57;4.88;;;;;;;27.04;100.00;101122.81;4946010;29;20596;-80
2022/07/08 08:09:36;;;;;;;7.40;5.32;;;;;;;27.27;100.00;101114.66;4946254;29;20043;-78
2022/07/08 08:12:22;;;;;;;8.10;6.32;;;;;;;27.18;100.00;101122.59;4952536;29;20046;-79
2022/07/08 08:15:08;;;;;;;8.90;5.22;;;;;;;27.45;100.00;101123.94;4952053;29;20023;-79
2022/07/08 08:17:54;;;;;;;6.82;4.20;;;;;;;27.47;95.48;101125.66;4948931;29;20027;-78
2022/07/08 08:20:40;;;;;;;7.47;4.43;;;;;;;28.07;95.35;101123.31;4935917;29;20035;-78
2022/07/08 08:23:26;;;;;;;11.40;6.57;;;;;;;28.43;93.06;101120.25;4957331;29;20554;-78
2022/07/08 08:26:12;;;;;;;6.85;5.55;;;;;;;28.61;90.04;101119.53;4946756;29;20027;-78
2022/07/08 08:28:58;;;;;;;7.72;4.00;;;;;;;27.81;92.24;101114.72;4954136;29;20031;-72
2022/07/08 08:31:43;;;;;;;8.13;3.83;;;;;;;28.59;94.36;101115.25;4937262;29;20027;-77
2022/07/08 08:34:29;;;;;;;5.03;3.83;;;;;;;29.21;83.66;101110.69;4953704;29;20466;-79
2022/07/08 08:37:15;;;;;;;5.32;3.45;;;;;;;29.11;85.51;101110.66;4961380;29;20027;-78
2022/07/08 08:40:04;;;;;;;4.55;3.53;;;;;;;28.29;86.52;101101.69;4958639;29;20038;-82
2022/07/08 08:42:50;;;;;;;5.80;3.30;;;;;;;27.71;88.69;101100.28;4962326;29;20042;-78
2022/07/08 08:45:43;;;;;;;4.10;3.38;;;;;;;27.83;84.88;101093.91;4949261;29;20477;-79
2022/07/08 08:48:38;;;;;;;4.43;3.17;;;;;;;28.55;84.99;101098.50;4964878;29;20040;-77
2022/07/08 08:51:30;;;;;;;5.70;3.55;;;;;;;29.07;81.47;101095.72;4953702;28;20035;-77
2022/07/08 08:54:22;;;;;;;4.72;4.03;;;;;;;29.25;81.73;101088.66;4964598;28;20054;-79
2022/07/08 08:57:11;;;;;;;5.38;3.50;;;;;;;29.66;75.82;101084.97;4966451;28;20034;-78
2022/07/08 08:59:57;;;;;;;4.85;3.40;;;;;;;29.88;76.93;101079.31;4966659;28;20480;-79
2022/07/08 09:02:43;;;;;;;25.88;3.95;;;;;;;29.77;75.70;101083.00;4970305;28;20030;-81
2022/07/08 09:05:29;;;;;;;3.80;3.00;;;;;;;29.37;80.36;101081.34;4975234;28;20042;-79
2022/07/08 09:08:15;;;;;;;4.97;3.55;;;;;;;29.65;75.16;101075.19;4958832;28;20050;-78
2022/07/08 09:11:01;;;;;;;4.80;3.67;;;;;;;29.54;79.95;101086.91;4970769;28;20031;-78
2022/07/08 09:14:11;;;;;;;3.83;2.92;;;;;;;29.43;78.73;101087.03;4971326;28;20884;-79
2022/07/08 09:17:13;;;;;;;6.25;3.35;;;;;;;30.16;74.63;101083.91;4974641;28;20045;-79
2022/07/08 09:20:01;;;;;;;4.72;2.90;;;;;;;29.69;73.60;101069.34;4959316;28;20049;-78
2022/07/08 09:22:46;;;;;;;5.07;2.70;;;;;;;30.08;71.33;101071.09;4955639;28;21257;-79
2022/07/08 09:25:32;;;;;;;3.25;2.63;;;;;;;28.88;72.62;101081.22;4969693;28;20089;-77
2022/07/08 09:28:27;;;;;;;6.53;2.83;;;;;;;29.67;76.83;101082.16;4969159;28;20043;-78
2022/07/08 09:31:15;;;;;;;3.72;2.70;;;;;;;30.06;70.96;101073.06;4971890;28;20393;-79
2022/07/08 09:34:05;;;;;;;2.65;2.45;;;;;;;30.15;68.33;101071.41;4954705;28;20462;-78
2022/07/08 09:36:51;;;;;;;3.72;2.70;;;;;;;30.61;70.79;101069.63;4967958;28;20039;-78
2022/07/08 09:39:37;;;;;;;7.47;2.90;;;;;;;30.71;71.62;101075.91;4970179;28;20061;-79
2022/07/08 09:42:22;;;;;;;5.63;3.30;;;;;;;31.03;64.77;101079.03;4971968;28;20423;-79
2022/07/08 09:45:09;;;;;;;4.28;3.03;;;;;;;29.80;70.71;101069.22;4976066;28;20031;-77
2022/07/08 09:48:03;;;;;;;3.60;2.70;;;;;;;29.66;72.94;101066.06;4970346;28;20548;-77
2022/07/08 09:50:49;;;;;;;9.90;2.78;;;;;;;28.87;77.25;101064.19;4958800;28;20042;-77
2022/07/08 09:53:36;;;;;;;2.72;2.53;;;;;;;29.44;74.55;101064.44;4969842;28;20039;-77
2022/07/08 09:56:26;;;;;;;3.10;2.80;;;;;;;28.88;79.52;101057.81;4971574;28;20125;-78
2022/07/08 09:59:12;;;;;;;6.50;3.00;;;;;;;28.90;81.21;101058.53;4970968;28;20061;-77
2022/07/08 10:01:59;;;;;;;5.88;3.25;;;;;;;29.24;80.81;101056.41;4972392;28;20042;-78
2022/07/08 10:04:46;;;;;;;7.75;3.17;;;;;;;28.54;83.91;101055.50;4976644;28;20031;-78
2022/07/08 10:07:35;;;;;;;4.28;3.28;;;;;;;28.19;86.55;101033.38;4971865;28;20058;-77
2022/07/08 10:10:21;;;;;;;6.43;3.00;;;;;;;28.74;86.41;101031.19;4970028;28;20035;-77
2022/07/08 10:13:07;;;;;;;7.13;3.40;;;;;;;28.89;88.48;101039.78;4957413;28;20030;-76
2022/07/08 10:15:57;;;;;;;8.30;4.03;;;;;;;28.93;81.87;101036.66;4969494;28;20362;-75
2022/07/08 10:18:49;;;;;;;4.88;3.65;;;;;;;28.81;85.74;101036.91;4968665;28;20133;-76
2022/07/08 10:21:39;;;;;;;5.88;4.55;;;;;;;29.32;83.91;101022.34;4972993;28;20065;-77
2022/07/08 10:24:28;;;;;;;5.03;3.53;;;;;;;29.47;80.29;101022.78;4977068;28;20045;-77
2022/07/08 10:27:14;;;;;;;5.25;3.70;;;;;;;28.77;85.07;101024.69;4976871;28;20110;-77
2022/07/08 10:30:18;;;;;;;5.65;4.20;;;;;;;29.62;80.07;101030.38;4979552;28;20037;-79
2022/07/08 10:33:04;;;;;;;4.43;4.03;;;;;;;29.53;80.30;101030.34;4978684;28;20026;-78
2022/07/08 10:36:03;;;;;;;4.50;4.10;;;;;;;29.42;82.25;101025.94;4974052;28;20109;-78
2022/07/08 10:38:50;;;;;;;6.90;4.47;;;;;;;29.75;74.80;101022.00;4976379;28;20531;-78
2022/07/08 10:41:36;;;;;;;5.28;4.15;;;;;;;28.87;77.26;101031.81;4971138;28;20513;-77
2022/07/08 10:44:44;;;;;;;8.82;4.10;;;;;;;29.15;81.29;101012.22;4971264;28;20110;-77
2022/07/08 10:47:31;;;;;;;5.05;4.10;;;;;;;29.24;81.42;101016.78;4974597;28;20373;-76
2022/07/08 10:50:23;;;;;;;4.85;3.80;;;;;;;29.52;76.87;101020.53;4970179;28;20043;-76
2022/07/08 10:53:09;;;;;;;10.43;4.10;;;;;;;29.74;78.17;101012.19;4953552;28;20070;-77
2022/07/08 10:55:55;;;;;;;7.28;4.35;;;;;;;29.89;78.39;101008.91;4953385;28;20146;-77
2022/07/08 10:59:18;;;;;;;5.32;3.90;;;;;;;30.42;71.08;101003.91;4943412;28;20031;-77
2022/07/08 11:02:11;;;;;;;4.38;3.70;;;;;;;29.43;74.83;101005.16;4949508;29;20024;-77
2022/07/08 11:04:57;;;;;;;4.45;3.40;;;;;;;30.06;71.32;101012.75;4937584;29;20094;-77
2022/07/08 11:07:43;;;;;;;7.00;3.58;;;;;;;29.97;69.13;101000.13;4938645;29;20472;-77
2022/07/08 11:10:31;;;;;;;4.55;3.55;;;;;;;30.49;68.25;101005.88;4953769;29;20042;-78
2022/07/08 11:13:19;;;;;;;5.20;3.50;;;;;;;30.48;68.00;101004.16;4953877;29;20091;-77
2022/07/08 11:16:05;;;;;;;7.53;3.67;;;;;;;30.60;65.93;101002.13;4955670;28;20476;-78
2022/07/08 11:18:51;;;;;;;3.97;3.55;;;;;;;31.00;67.59;100997.28;4952441;29;20031;-77
2022/07/08 11:21:37;;;;;;;9.88;3.55;;;;;;;30.58;70.32;100990.63;4934575;29;20028;-78
2022/07/08 11:24:22;;;;;;;3.65;3.15;;;;;;;30.90;68.01;100989.22;4943097;28;20035;-77
2022/07/08 11:27:08;;;;;;;5.13;3.78;;;;;;;30.14;67.24;100992.13;4933000;29;20094;-78
2022/07/08 11:29:55;;;;;;;5.72;3.28;;;;;;;30.32;67.19;100973.31;4935260;28;20465;-79
2022/07/08 11:32:42;;;;;;;6.25;3.42;;;;;;;30.86;68.16;100976.97;4938416;28;20098;-80
2022/07/08 11:35:28;;;;;;;5.70;3.58;;;;;;;30.62;66.83;100962.28;4948488;28;20061;-78
2022/07/08 11:38:37;;;;;;;4.30;3.45;;;;;;;30.44;69.15;100962.19;4948284;29;20021;-77
2022/07/08 11:41:23;;;;;;;5.00;3.30;;;;;;;30.59;68.29;100960.72;4947386;29;20049;-78
2022/07/08 11:44:09;;;;;;;6.18;3.88;;;;;;;30.39;64.09;100967.19;4948681;29;20156;-78
2022/07/08 11:46:56;;;;;;;7.25;3.72;;;;;;;30.02;69.73;100962.69;4946654;29;20200;-77
2022/07/08 11:49:43;;;;;;;6.07;3.60;;;;;;;30.37;71.12;100952.94;4946632;29;20027;-78
2022/07/08 11:52:30;;;;;;;4.25;3.40;;;;;;;29.94;68.79;100949.88;4931686;29;20050;-77
2022/07/08 11:55:16;;;;;;;3.55;3.25;;;;;;;30.36;65.48;100950.38;4961643;28;20070;-78
2022/07/08 11:58:01;;;;;;;5.75;3.35;;;;;;;31.18;65.01;100950.31;4964977;28;20401;-78
2022/07/08 12:00:47;;;;;;;4.68;3.13;;;;;;;30.91;61.75;100934.06;4967784;28;20054;-78
2022/07/08 12:03:34;;;;;;;4.70;3.30;;;;;;;30.89;64.84;100925.28;4967666;28;20461;-78
2022/07/08 12:06:25;;;;;;;4.50;3.20;;;;;;;31.03;62.99;100926.63;4965689;28;20136;-78
2022/07/08 12:09:11;;;;;;;3.30;2.97;;;;;;;30.83;61.33;100916.91;4968286;28;20031;-79
2022/07/08 12:11:58;;;;;;;3.70;3.20;;;;;;;31.38;60.01;100926.69;4969689;28;20038;-77
2022/07/08 12:14:44;;;;;;;3.97;3.22;;;;;;;31.90;60.12;100933.09;4970080;28;20031;-78
2022/07/08 12:17:30;;;;;;;3.30;2.70;;;;;;;30.66;58.40;100921.22;4956198;28;20622;-80
2022/07/08 12:20:33;;;;;;;3.40;2.30;;;;;;;30.51;54.60;100917.34;4971745;28;20365;-78
2022/07/08 12:23:19;;;;;;;3.75;2.67;;;;;;;30.35;56.14;100921.66;4970521;28;20049;-78
2022/07/08 12:26:06;;;;;;;4.68;2.78;;;;;;;30.75;56.32;100900.56;4969904;28;20041;-78
2022/07/08 12:28:52;;;;;;;3.17;2.72;;;;;;;31.35;56.33;100905.31;4970889;28;20053;-78
2022/07/08 12:31:40;;;;;;;4.22;3.20;;;;;;;31.55;54.70;100906.88;4956516;28;20431;-78
2022/07/08 12:34:26;;;;;;;5.55;2.55;;;;;;;31.35;55.18;100899.91;4957255;28;21203;-77
2022/07/08 12:37:17;;;;;;;6.30;2.65;;;;;;;31.03;57.19;100899.53;4955087;28;20062;-78
2022/07/08 12:40:19;;;;;;;5.00;4.18;;;;;;;30.90;52.32;100902.59;4970280;28;20042;-78
2022/07/08 12:43:10;;;;;;;4.00;2.53;;;;;;;30.87;53.42;100893.94;4955836;28;20096;-78
2022/07/08 12:45:56;;;;;;;6.32;2.40;;;;;;;31.45;54.11;100892.53;4968322;28;20350;-78
2022/07/08 12:48:42;;;;;;;5.18;2.70;;;;;;;31.46;53.40;100896.94;4969800;28;20361;-78